sensor_id;sensor_type;location;lat;lon;timestamp;P1;durP1;ratioP1;P2;durP2;ratioP2
22007;SDS011;11168;56.976;24.168;2023-02-28T00:01:13;7.47;;;3.33;;
22007;SDS011;11168;56.976;24.168;2023-02-28T00:03:40;5.88;;;3.28;;
22007;SDS011;11168;56.976;24.168;2023-02-28T00:06:08;6.88;;;3.53;;
22007;SDS011;11168;56.976;24.168;2023-02-28T00:08:38;9.75;;;3.50;;
22007;SDS011;11168;56.976;24.168;2023-02-28T00:11:06;6.30;;;2.90;;
22007;SDS011;11168;56.976;24.168;2023-02-28T00:13:36;6.70;;;2.92;;
22007;SDS011;11168;56.976;24.168;2023-02-28T00:16:09;6.60;;;3.05;;
22007;SDS011;11168;56.976;24.168;2023-02-28T00:18:39;4.22;;;2.33;;
22007;SDS011;11168;56.976;24.168;2023-02-28T00:21:07;6.22;;;2.72;;
22007;SDS011;11168;56.976;24.168;2023-02-28T00:23:34;7.32;;;2.63;;
22007;SDS011;11168;56.976;24.168;2023-02-28T00:26:02;5.45;;;2.78;;
22007;SDS011;11168;56.976;24.168;2023-02-28T00:28:29;5.50;;;2.65;;
22007;SDS011;11168;56.976;24.168;2023-02-28T00:30:56;4.82;;;2.08;;
22007;SDS011;11168;56.976;24.168;2023-02-28T00:33:24;6.68;;;2.13;;
22007;SDS011;11168;56.976;24.168;2023-02-28T00:35:51;4.95;;;2.20;;
22007;SDS011;11168;56.976;24.168;2023-02-28T00:38:17;4.40;;;2.22;;
22007;SDS011;11168;56.976;24.168;2023-02-28T00:40:44;5.35;;;2.10;;
22007;SDS011;11168;56.976;24.168;2023-02-28T00:43:11;4.05;;;2.10;;
22007;SDS011;11168;56.976;24.168;2023-02-28T00:45:38;5.05;;;2.00;;
22007;SDS011;11168;56.976;24.168;2023-02-28T00:48:05;6.07;;;2.20;;
22007;SDS011;11168;56.976;24.168;2023-02-28T00:50:32;5.00;;;1.95;;
22007;SDS011;11168;56.976;24.168;2023-02-28T00:52:59;3.70;;;1.80;;
22007;SDS011;11168;56.976;24.168;2023-02-28T00:55:26;4.70;;;2.17;;
22007;SDS011;11168;56.976;24.168;2023-02-28T00:57:53;4.03;;;1.77;;
22007;SDS011;11168;56.976;24.168;2023-02-28T01:00:20;7.22;;;2.00;;
22007;SDS011;11168;56.976;24.168;2023-02-28T01:02:47;4.13;;;2.00;;
22007;SDS011;11168;56.976;24.168;2023-02-28T01:05:14;5.05;;;1.63;;
22007;SDS011;11168;56.976;24.168;2023-02-28T01:07:41;3.72;;;1.90;;
22007;SDS011;11168;56.976;24.168;2023-02-28T01:10:08;5.20;;;1.98;;
22007;SDS011;11168;56.976;24.168;2023-02-28T01:12:35;6.82;;;2.08;;
22007;SDS011;11168;56.976;24.168;2023-02-28T01:15:02;4.82;;;2.10;;
22007;SDS011;11168;56.976;24.168;2023-02-28T01:17:30;4.10;;;2.20;;
22007;SDS011;11168;56.976;24.168;2023-02-28T01:19:57;3.40;;;2.03;;
22007;SDS011;11168;56.976;24.168;2023-02-28T01:22:24;5.90;;;2.30;;
22007;SDS011;11168;56.976;24.168;2023-02-28T01:24:51;8.40;;;2.38;;
22007;SDS011;11168;56.976;24.168;2023-02-28T01:27:18;5.20;;;2.38;;
22007;SDS011;11168;56.976;24.168;2023-02-28T01:29:45;5.13;;;2.60;;
22007;SDS011;11168;56.976;24.168;2023-02-28T01:32:12;4.18;;;2.50;;
22007;SDS011;11168;56.976;24.168;2023-02-28T01:34:39;4.75;;;2.15;;
22007;SDS011;11168;56.976;24.168;2023-02-28T01:37:05;6.18;;;2.88;;
22007;SDS011;11168;56.976;24.168;2023-02-28T01:39:32;4.72;;;2.67;;
22007;SDS011;11168;56.976;24.168;2023-02-28T01:41:59;4.38;;;2.20;;
22007;SDS011;11168;56.976;24.168;2023-02-28T01:47:21;7.03;;;2.58;;
22007;SDS011;11168;56.976;24.168;2023-02-28T01:49:51;6.72;;;2.20;;
22007;SDS011;11168;56.976;24.168;2023-02-28T01:52:18;6.88;;;2.58;;
22007;SDS011;11168;56.976;24.168;2023-02-28T01:54:51;7.03;;;2.70;;
22007;SDS011;11168;56.976;24.168;2023-02-28T01:57:21;4.70;;;2.47;;
22007;SDS011;11168;56.976;24.168;2023-02-28T01:59:52;5.80;;;2.63;;
22007;SDS011;11168;56.976;24.168;2023-02-28T02:02:24;3.42;;;1.90;;
22007;SDS011;11168;56.976;24.168;2023-02-28T02:05:04;4.65;;;2.15;;
22007;SDS011;11168;56.976;24.168;2023-02-28T02:07:32;4.47;;;2.00;;
22007;SDS011;11168;56.976;24.168;2023-02-28T02:10:13;5.18;;;2.20;;
22007;SDS011;11168;56.976;24.168;2023-02-28T02:26:47;4.85;;;1.50;;
22007;SDS011;11168;56.976;24.168;2023-02-28T02:37:13;5.95;;;1.73;;
22007;SDS011;11168;56.976;24.168;2023-02-28T02:39:48;5.57;;;1.52;;
22007;SDS011;11168;56.976;24.168;2023-02-28T02:42:37;3.85;;;1.42;;
22007;SDS011;11168;56.976;24.168;2023-02-28T02:45:10;3.55;;;1.50;;
22007;SDS011;11168;56.976;24.168;2023-02-28T02:47:51;3.47;;;1.70;;
22007;SDS011;11168;56.976;24.168;2023-02-28T02:50:24;4.38;;;1.48;;
22007;SDS011;11168;56.976;24.168;2023-02-28T02:52:56;4.78;;;1.75;;
22007;SDS011;11168;56.976;24.168;2023-02-28T02:57:54;4.45;;;1.73;;
22007;SDS011;11168;56.976;24.168;2023-02-28T03:00:35;1.98;;;1.13;;
22007;SDS011;11168;56.976;24.168;2023-02-28T03:03:07;3.47;;;1.48;;
22007;SDS011;11168;56.976;24.168;2023-02-28T03:05:46;5.68;;;1.67;;
22007;SDS011;11168;56.976;24.168;2023-02-28T03:08:15;2.75;;;1.55;;
22007;SDS011;11168;56.976;24.168;2023-02-28T03:10:48;2.83;;;1.58;;
22007;SDS011;11168;56.976;24.168;2023-02-28T03:21:18;3.10;;;1.65;;
22007;SDS011;11168;56.976;24.168;2023-02-28T03:24:17;2.90;;;1.58;;
22007;SDS011;11168;56.976;24.168;2023-02-28T03:26:45;3.78;;;1.45;;
22007;SDS011;11168;56.976;24.168;2023-02-28T03:29:28;4.65;;;1.70;;
22007;SDS011;11168;56.976;24.168;2023-02-28T03:32:05;4.22;;;1.92;;
22007;SDS011;11168;56.976;24.168;2023-02-28T03:34:46;2.88;;;1.40;;
22007;SDS011;11168;56.976;24.168;2023-02-28T03:37:21;3.60;;;1.70;;
22007;SDS011;11168;56.976;24.168;2023-02-28T03:39:53;1.85;;;1.42;;
22007;SDS011;11168;56.976;24.168;2023-02-28T03:42:31;6.18;;;1.63;;
22007;SDS011;11168;56.976;24.168;2023-02-28T03:45:00;3.55;;;1.63;;
22007;SDS011;11168;56.976;24.168;2023-02-28T03:47:41;2.95;;;1.40;;
22007;SDS011;11168;56.976;24.168;2023-02-28T03:50:31;5.13;;;1.38;;
22007;SDS011;11168;56.976;24.168;2023-02-28T03:53:19;3.55;;;1.23;;
22007;SDS011;11168;56.976;24.168;2023-02-28T04:01:08;4.75;;;1.48;;
22007;SDS011;11168;56.976;24.168;2023-02-28T04:03:41;2.03;;;1.25;;
22007;SDS011;11168;56.976;24.168;2023-02-28T04:06:13;2.25;;;1.10;;
22007;SDS011;11168;56.976;24.168;2023-02-28T04:08:43;3.85;;;1.60;;
22007;SDS011;11168;56.976;24.168;2023-02-28T04:13:46;3.60;;;1.40;;
22007;SDS011;11168;56.976;24.168;2023-02-28T04:16:13;4.07;;;1.38;;
22007;SDS011;11168;56.976;24.168;2023-02-28T04:18:59;3.30;;;1.70;;
22007;SDS011;11168;56.976;24.168;2023-02-28T04:21:32;4.30;;;1.80;;
22007;SDS011;11168;56.976;24.168;2023-02-28T04:26:35;9.23;;;2.47;;
22007;SDS011;11168;56.976;24.168;2023-02-28T04:29:03;4.80;;;2.03;;
22007;SDS011;11168;56.976;24.168;2023-02-28T04:31:33;7.18;;;2.28;;
22007;SDS011;11168;56.976;24.168;2023-02-28T04:34:00;10.48;;;3.38;;
22007;SDS011;11168;56.976;24.168;2023-02-28T04:36:28;13.40;;;4.88;;
22007;SDS011;11168;56.976;24.168;2023-02-28T04:38:55;13.07;;;4.55;;
22007;SDS011;11168;56.976;24.168;2023-02-28T04:41:23;16.88;;;4.88;;
22007;SDS011;11168;56.976;24.168;2023-02-28T04:43:53;8.43;;;4.15;;
22007;SDS011;11168;56.976;24.168;2023-02-28T04:46:19;8.82;;;3.53;;
22007;SDS011;11168;56.976;24.168;2023-02-28T04:48:47;9.00;;;3.15;;
22007;SDS011;11168;56.976;24.168;2023-02-28T04:51:16;9.50;;;3.40;;
22007;SDS011;11168;56.976;24.168;2023-02-28T04:53:44;4.88;;;2.65;;
22007;SDS011;11168;56.976;24.168;2023-02-28T04:56:12;6.82;;;2.22;;
22007;SDS011;11168;56.976;24.168;2023-02-28T04:58:41;7.05;;;2.63;;
22007;SDS011;11168;56.976;24.168;2023-02-28T05:01:22;7.20;;;2.45;;
22007;SDS011;11168;56.976;24.168;2023-02-28T05:03:50;7.20;;;2.30;;
22007;SDS011;11168;56.976;24.168;2023-02-28T05:06:18;6.03;;;2.50;;
22007;SDS011;11168;56.976;24.168;2023-02-28T05:08:46;8.02;;;2.50;;
22007;SDS011;11168;56.976;24.168;2023-02-28T05:11:17;4.70;;;2.40;;
22007;SDS011;11168;56.976;24.168;2023-02-28T05:13:47;3.53;;;2.30;;
22007;SDS011;11168;56.976;24.168;2023-02-28T05:16:15;6.70;;;2.20;;
22007;SDS011;11168;56.976;24.168;2023-02-28T05:18:43;6.57;;;2.38;;
22007;SDS011;11168;56.976;24.168;2023-02-28T05:21:22;4.15;;;2.20;;
22007;SDS011;11168;56.976;24.168;2023-02-28T05:26:19;5.20;;;2.03;;
22007;SDS011;11168;56.976;24.168;2023-02-28T05:28:46;3.70;;;2.20;;
22007;SDS011;11168;56.976;24.168;2023-02-28T05:31:13;5.38;;;2.40;;
22007;SDS011;11168;56.976;24.168;2023-02-28T05:33:40;4.60;;;2.15;;
22007;SDS011;11168;56.976;24.168;2023-02-28T05:36:07;5.28;;;2.72;;
22007;SDS011;11168;56.976;24.168;2023-02-28T05:38:35;4.63;;;2.10;;
22007;SDS011;11168;56.976;24.168;2023-02-28T05:41:04;5.47;;;2.30;;
22007;SDS011;11168;56.976;24.168;2023-02-28T05:43:36;5.45;;;2.47;;
22007;SDS011;11168;56.976;24.168;2023-02-28T05:46:07;5.53;;;2.58;;
22007;SDS011;11168;56.976;24.168;2023-02-28T05:48:36;6.22;;;3.15;;
22007;SDS011;11168;56.976;24.168;2023-02-28T05:51:04;5.88;;;3.05;;
22007;SDS011;11168;56.976;24.168;2023-02-28T05:53:33;6.18;;;3.03;;
22007;SDS011;11168;56.976;24.168;2023-02-28T05:56:00;5.82;;;2.85;;
22007;SDS011;11168;56.976;24.168;2023-02-28T05:58:27;5.10;;;2.90;;
22007;SDS011;11168;56.976;24.168;2023-02-28T06:00:58;7.15;;;3.40;;
22007;SDS011;11168;56.976;24.168;2023-02-28T06:03:25;5.32;;;2.90;;
22007;SDS011;11168;56.976;24.168;2023-02-28T06:05:53;5.60;;;3.42;;
22007;SDS011;11168;56.976;24.168;2023-02-28T06:08:20;6.20;;;3.08;;
22007;SDS011;11168;56.976;24.168;2023-02-28T06:10:47;8.70;;;3.35;;
22007;SDS011;11168;56.976;24.168;2023-02-28T06:13:14;7.93;;;3.42;;
22007;SDS011;11168;56.976;24.168;2023-02-28T06:15:41;9.52;;;3.80;;
22007;SDS011;11168;56.976;24.168;2023-02-28T06:18:08;5.97;;;4.00;;
22007;SDS011;11168;56.976;24.168;2023-02-28T06:20:35;9.85;;;4.07;;
22007;SDS011;11168;56.976;24.168;2023-02-28T06:23:02;9.77;;;4.38;;
22007;SDS011;11168;56.976;24.168;2023-02-28T06:25:29;10.93;;;4.90;;
22007;SDS011;11168;56.976;24.168;2023-02-28T06:27:56;9.77;;;4.40;;
22007;SDS011;11168;56.976;24.168;2023-02-28T06:30:23;7.60;;;4.13;;
22007;SDS011;11168;56.976;24.168;2023-02-28T06:32:53;7.15;;;3.60;;
22007;SDS011;11168;56.976;24.168;2023-02-28T06:35:20;6.20;;;3.60;;
22007;SDS011;11168;56.976;24.168;2023-02-28T06:37:50;7.40;;;3.23;;
22007;SDS011;11168;56.976;24.168;2023-02-28T06:40:17;7.78;;;4.40;;
22007;SDS011;11168;56.976;24.168;2023-02-28T06:42:44;12.60;;;4.65;;
22007;SDS011;11168;56.976;24.168;2023-02-28T06:45:11;7.47;;;4.07;;
22007;SDS011;11168;56.976;24.168;2023-02-28T06:47:39;8.73;;;3.65;;
22007;SDS011;11168;56.976;24.168;2023-02-28T06:50:08;6.85;;;3.63;;
22007;SDS011;11168;56.976;24.168;2023-02-28T06:52:38;5.80;;;3.22;;
22007;SDS011;11168;56.976;24.168;2023-02-28T06:55:05;9.82;;;3.45;;
22007;SDS011;11168;56.976;24.168;2023-02-28T06:57:34;6.40;;;3.33;;
22007;SDS011;11168;56.976;24.168;2023-02-28T07:00:07;8.27;;;3.72;;
22007;SDS011;11168;56.976;24.168;2023-02-28T07:02:36;6.85;;;3.55;;
22007;SDS011;11168;56.976;24.168;2023-02-28T07:05:05;8.20;;;3.60;;
22007;SDS011;11168;56.976;24.168;2023-02-28T07:07:32;7.82;;;3.63;;
22007;SDS011;11168;56.976;24.168;2023-02-28T07:09:59;10.20;;;3.97;;
22007;SDS011;11168;56.976;24.168;2023-02-28T07:12:26;9.55;;;4.00;;
22007;SDS011;11168;56.976;24.168;2023-02-28T07:14:53;8.45;;;3.80;;
22007;SDS011;11168;56.976;24.168;2023-02-28T07:17:22;10.43;;;4.85;;
22007;SDS011;11168;56.976;24.168;2023-02-28T07:19:49;12.73;;;6.15;;
22007;SDS011;11168;56.976;24.168;2023-02-28T07:22:16;10.75;;;4.50;;
22007;SDS011;11168;56.976;24.168;2023-02-28T07:24:43;7.70;;;3.83;;
22007;SDS011;11168;56.976;24.168;2023-02-28T07:27:10;7.60;;;4.13;;
22007;SDS011;11168;56.976;24.168;2023-02-28T07:29:37;8.48;;;4.18;;
22007;SDS011;11168;56.976;24.168;2023-02-28T07:32:04;7.13;;;4.35;;
22007;SDS011;11168;56.976;24.168;2023-02-28T07:34:31;11.10;;;3.92;;
22007;SDS011;11168;56.976;24.168;2023-02-28T07:36:58;9.40;;;4.00;;
22007;SDS011;11168;56.976;24.168;2023-02-28T07:39:26;7.88;;;3.95;;
22007;SDS011;11168;56.976;24.168;2023-02-28T07:41:52;6.93;;;3.13;;
22007;SDS011;11168;56.976;24.168;2023-02-28T07:44:19;8.10;;;3.60;;
22007;SDS011;11168;56.976;24.168;2023-02-28T07:46:47;6.20;;;3.13;;
22007;SDS011;11168;56.976;24.168;2023-02-28T07:49:14;8.35;;;2.55;;
22007;SDS011;11168;56.976;24.168;2023-02-28T07:51:41;7.93;;;3.63;;
22007;SDS011;11168;56.976;24.168;2023-02-28T07:54:08;7.20;;;3.40;;
22007;SDS011;11168;56.976;24.168;2023-02-28T07:56:35;9.18;;;3.65;;
22007;SDS011;11168;56.976;24.168;2023-02-28T07:59:02;8.20;;;3.53;;
22007;SDS011;11168;56.976;24.168;2023-02-28T08:01:29;10.75;;;4.32;;
22007;SDS011;11168;56.976;24.168;2023-02-28T08:03:56;5.90;;;3.60;;
22007;SDS011;11168;56.976;24.168;2023-02-28T08:06:24;4.75;;;3.10;;
22007;SDS011;11168;56.976;24.168;2023-02-28T08:08:52;8.82;;;3.13;;
22007;SDS011;11168;56.976;24.168;2023-02-28T08:11:19;8.20;;;2.63;;
22007;SDS011;11168;56.976;24.168;2023-02-28T08:13:46;7.32;;;2.90;;
22007;SDS011;11168;56.976;24.168;2023-02-28T08:16:13;3.38;;;2.20;;
22007;SDS011;11168;56.976;24.168;2023-02-28T08:18:49;4.72;;;2.50;;
22007;SDS011;11168;56.976;24.168;2023-02-28T08:21:17;7.03;;;2.53;;
22007;SDS011;11168;56.976;24.168;2023-02-28T08:23:46;4.07;;;2.50;;
22007;SDS011;11168;56.976;24.168;2023-02-28T08:26:15;3.87;;;2.40;;
22007;SDS011;11168;56.976;24.168;2023-02-28T08:28:44;6.53;;;2.70;;
22007;SDS011;11168;56.976;24.168;2023-02-28T08:31:12;6.40;;;3.10;;
22007;SDS011;11168;56.976;24.168;2023-02-28T08:33:41;5.13;;;3.00;;
22007;SDS011;11168;56.976;24.168;2023-02-28T08:36:08;4.97;;;3.60;;
22007;SDS011;11168;56.976;24.168;2023-02-28T08:38:36;7.97;;;4.00;;
22007;SDS011;11168;56.976;24.168;2023-02-28T08:41:05;13.02;;;5.72;;
22007;SDS011;11168;56.976;24.168;2023-02-28T08:43:35;12.82;;;6.90;;
22007;SDS011;11168;56.976;24.168;2023-02-28T08:46:03;6.68;;;4.20;;
22007;SDS011;11168;56.976;24.168;2023-02-28T08:48:31;5.50;;;2.50;;
22007;SDS011;11168;56.976;24.168;2023-02-28T08:51:05;4.45;;;2.00;;
22007;SDS011;11168;56.976;24.168;2023-02-28T08:53:36;4.32;;;1.60;;
22007;SDS011;11168;56.976;24.168;2023-02-28T08:56:06;4.25;;;1.55;;
22007;SDS011;11168;56.976;24.168;2023-02-28T08:58:35;2.33;;;1.45;;
22007;SDS011;11168;56.976;24.168;2023-02-28T09:01:13;4.75;;;1.90;;
22007;SDS011;11168;56.976;24.168;2023-02-28T09:03:49;10.23;;;4.03;;
22007;SDS011;11168;56.976;24.168;2023-02-28T09:06:17;13.20;;;6.15;;
22007;SDS011;11168;56.976;24.168;2023-02-28T09:08:47;10.70;;;6.32;;
22007;SDS011;11168;56.976;24.168;2023-02-28T09:11:14;6.15;;;4.15;;
22007;SDS011;11168;56.976;24.168;2023-02-28T09:13:41;5.38;;;2.80;;
22007;SDS011;11168;56.976;24.168;2023-02-28T09:16:10;5.30;;;3.10;;
22007;SDS011;11168;56.976;24.168;2023-02-28T09:18:39;13.65;;;5.82;;
22007;SDS011;11168;56.976;24.168;2023-02-28T09:21:07;16.45;;;7.85;;
22007;SDS011;11168;56.976;24.168;2023-02-28T09:23:36;9.30;;;5.63;;
22007;SDS011;11168;56.976;24.168;2023-02-28T09:26:04;7.43;;;4.10;;
22007;SDS011;11168;56.976;24.168;2023-02-28T09:28:32;4.65;;;2.80;;
22007;SDS011;11168;56.976;24.168;2023-02-28T09:30:59;5.45;;;3.03;;
22007;SDS011;11168;56.976;24.168;2023-02-28T09:33:26;4.38;;;2.30;;
22007;SDS011;11168;56.976;24.168;2023-02-28T09:36:01;4.18;;;1.60;;
22007;SDS011;11168;56.976;24.168;2023-02-28T09:38:30;3.28;;;1.75;;
22007;SDS011;11168;56.976;24.168;2023-02-28T09:40:58;2.67;;;1.50;;
22007;SDS011;11168;56.976;24.168;2023-02-28T09:43:33;7.72;;;3.90;;
22007;SDS011;11168;56.976;24.168;2023-02-28T09:48:54;11.63;;;7.00;;
22007;SDS011;11168;56.976;24.168;2023-02-28T09:54:01;8.18;;;4.55;;
22007;SDS011;11168;56.976;24.168;2023-02-28T09:56:49;5.85;;;3.15;;
22007;SDS011;11168;56.976;24.168;2023-02-28T10:13:23;2.70;;;1.20;;
22007;SDS011;11168;56.976;24.168;2023-02-28T10:16:40;3.40;;;1.35;;
22007;SDS011;11168;56.976;24.168;2023-02-28T10:22:00;2.28;;;1.17;;
22007;SDS011;11168;56.976;24.168;2023-02-28T10:24:44;2.15;;;1.20;;
22007;SDS011;11168;56.976;24.168;2023-02-28T10:27:20;1.92;;;1.35;;
22007;SDS011;11168;56.976;24.168;2023-02-28T10:29:53;2.40;;;1.35;;
22007;SDS011;11168;56.976;24.168;2023-02-28T10:32:35;5.68;;;3.60;;
22007;SDS011;11168;56.976;24.168;2023-02-28T10:37:40;4.93;;;2.83;;
22007;SDS011;11168;56.976;24.168;2023-02-28T10:45:53;3.92;;;2.50;;
22007;SDS011;11168;56.976;24.168;2023-02-28T10:48:29;5.57;;;3.72;;
22007;SDS011;11168;56.976;24.168;2023-02-28T10:50:56;7.03;;;3.60;;
22007;SDS011;11168;56.976;24.168;2023-02-28T10:56:27;5.45;;;3.17;;
22007;SDS011;11168;56.976;24.168;2023-02-28T10:59:02;8.98;;;5.00;;
22007;SDS011;11168;56.976;24.168;2023-02-28T11:01:43;13.95;;;6.85;;
22007;SDS011;11168;56.976;24.168;2023-02-28T11:07:00;5.47;;;2.65;;
22007;SDS011;11168;56.976;24.168;2023-02-28T11:12:00;3.28;;;1.30;;
22007;SDS011;11168;56.976;24.168;2023-02-28T11:14:30;4.15;;;1.95;;
22007;SDS011;11168;56.976;24.168;2023-02-28T11:17:11;4.75;;;2.33;;
22007;SDS011;11168;56.976;24.168;2023-02-28T11:19:46;3.58;;;2.15;;
22007;SDS011;11168;56.976;24.168;2023-02-28T11:24:46;3.75;;;1.75;;
22007;SDS011;11168;56.976;24.168;2023-02-28T11:28:00;3.80;;;1.80;;
22007;SDS011;11168;56.976;24.168;2023-02-28T11:30:24;4.35;;;1.70;;
22007;SDS011;11168;56.976;24.168;2023-02-28T11:32:56;5.03;;;1.98;;
22007;SDS011;11168;56.976;24.168;2023-02-28T11:35:36;5.82;;;3.30;;
22007;SDS011;11168;56.976;24.168;2023-02-28T11:38:09;11.50;;;6.63;;
22007;SDS011;11168;56.976;24.168;2023-02-28T11:46:35;2.55;;;1.60;;
22007;SDS011;11168;56.976;24.168;2023-02-28T11:51:59;2.30;;;1.33;;
22007;SDS011;11168;56.976;24.168;2023-02-28T11:54:48;6.43;;;2.60;;
22007;SDS011;11168;56.976;24.168;2023-02-28T12:03:35;3.67;;;1.73;;
22007;SDS011;11168;56.976;24.168;2023-02-28T12:11:34;3.28;;;1.50;;
22007;SDS011;11168;56.976;24.168;2023-02-28T12:24:52;5.95;;;2.80;;
22007;SDS011;11168;56.976;24.168;2023-02-28T12:27:35;4.25;;;1.70;;
22007;SDS011;11168;56.976;24.168;2023-02-28T12:32:41;6.13;;;1.40;;
22007;SDS011;11168;56.976;24.168;2023-02-28T12:35:12;2.67;;;1.23;;
22007;SDS011;11168;56.976;24.168;2023-02-28T12:40:23;2.30;;;1.20;;
22007;SDS011;11168;56.976;24.168;2023-02-28T12:43:04;1.23;;;0.85;;
22007;SDS011;11168;56.976;24.168;2023-02-28T12:45:51;5.95;;;1.20;;
22007;SDS011;11168;56.976;24.168;2023-02-28T12:48:27;4.30;;;1.70;;
22007;SDS011;11168;56.976;24.168;2023-02-28T12:51:04;2.55;;;1.40;;
22007;SDS011;11168;56.976;24.168;2023-02-28T12:56:57;3.25;;;1.35;;
22007;SDS011;11168;56.976;24.168;2023-02-28T12:59:33;3.65;;;1.13;;
22007;SDS011;11168;56.976;24.168;2023-02-28T13:13:05;4.63;;;2.65;;
22007;SDS011;11168;56.976;24.168;2023-02-28T13:15:38;6.85;;;2.30;;
22007;SDS011;11168;56.976;24.168;2023-02-28T13:18:30;5.57;;;2.65;;
22007;SDS011;11168;56.976;24.168;2023-02-28T13:21:00;4.57;;;1.95;;
22007;SDS011;11168;56.976;24.168;2023-02-28T13:23:40;3.88;;;1.85;;
22007;SDS011;11168;56.976;24.168;2023-02-28T13:26:12;3.13;;;1.40;;
22007;SDS011;11168;56.976;24.168;2023-02-28T13:42:30;3.53;;;1.70;;
22007;SDS011;11168;56.976;24.168;2023-02-28T13:47:34;2.95;;;1.38;;
22007;SDS011;11168;56.976;24.168;2023-02-28T14:01:03;2.38;;;1.30;;
22007;SDS011;11168;56.976;24.168;2023-02-28T14:06:51;2.10;;;1.10;;
22007;SDS011;11168;56.976;24.168;2023-02-28T14:09:40;4.57;;;1.10;;
22007;SDS011;11168;56.976;24.168;2023-02-28T14:18:10;3.53;;;1.30;;
22007;SDS011;11168;56.976;24.168;2023-02-28T14:20:59;2.67;;;1.63;;
22007;SDS011;11168;56.976;24.168;2023-02-28T14:24:21;4.35;;;2.35;;
22007;SDS011;11168;56.976;24.168;2023-02-28T14:27:03;3.10;;;2.35;;
22007;SDS011;11168;56.976;24.168;2023-02-28T14:37:54;6.47;;;2.45;;
22007;SDS011;11168;56.976;24.168;2023-02-28T14:40:27;15.05;;;5.95;;
22007;SDS011;11168;56.976;24.168;2023-02-28T14:42:59;26.55;;;13.57;;
22007;SDS011;11168;56.976;24.168;2023-02-28T14:45:29;31.23;;;17.00;;
22007;SDS011;11168;56.976;24.168;2023-02-28T14:47:58;37.92;;;23.13;;
22007;SDS011;11168;56.976;24.168;2023-02-28T14:50:31;43.75;;;24.60;;
22007;SDS011;11168;56.976;24.168;2023-02-28T14:53:01;49.00;;;26.80;;
22007;SDS011;11168;56.976;24.168;2023-02-28T14:55:35;44.20;;;26.10;;
22007;SDS011;11168;56.976;24.168;2023-02-28T14:58:21;47.90;;;26.13;;
22007;SDS011;11168;56.976;24.168;2023-02-28T15:00:54;38.58;;;25.27;;
22007;SDS011;11168;56.976;24.168;2023-02-28T15:03:33;36.00;;;24.15;;
22007;SDS011;11168;56.976;24.168;2023-02-28T15:06:03;36.75;;;23.95;;
22007;SDS011;11168;56.976;24.168;2023-02-28T15:08:32;37.97;;;25.05;;
22007;SDS011;11168;56.976;24.168;2023-02-28T15:11:06;37.05;;;26.23;;
22007;SDS011;11168;56.976;24.168;2023-02-28T15:19:00;28.58;;;19.40;;
22007;SDS011;11168;56.976;24.168;2023-02-28T15:21:49;20.00;;;14.57;;
22007;SDS011;11168;56.976;24.168;2023-02-28T15:24:31;15.55;;;12.35;;
22007;SDS011;11168;56.976;24.168;2023-02-28T15:27:06;10.95;;;6.68;;
22007;SDS011;11168;56.976;24.168;2023-02-28T15:29:45;6.97;;;4.70;;
22007;SDS011;11168;56.976;24.168;2023-02-28T15:32:23;6.55;;;3.10;;
22007;SDS011;11168;56.976;24.168;2023-02-28T15:37:47;2.50;;;1.20;;
22007;SDS011;11168;56.976;24.168;2023-02-28T15:45:34;3.72;;;1.20;;
22007;SDS011;11168;56.976;24.168;2023-02-28T15:54:07;3.80;;;1.05;;
22007;SDS011;11168;56.976;24.168;2023-02-28T15:56:42;3.22;;;1.00;;
22007;SDS011;11168;56.976;24.168;2023-02-28T15:59:15;3.22;;;1.10;;
22007;SDS011;11168;56.976;24.168;2023-02-28T16:02:01;8.27;;;1.85;;
22007;SDS011;11168;56.976;24.168;2023-02-28T16:04:53;5.72;;;2.53;;
22007;SDS011;11168;56.976;24.168;2023-02-28T16:07:22;8.00;;;3.97;;
22007;SDS011;11168;56.976;24.168;2023-02-28T16:09:50;9.73;;;5.00;;
22007;SDS011;11168;56.976;24.168;2023-02-28T16:12:17;8.40;;;4.15;;
22007;SDS011;11168;56.976;24.168;2023-02-28T16:14:45;6.82;;;3.47;;
22007;SDS011;11168;56.976;24.168;2023-02-28T16:17:19;6.45;;;2.60;;
22007;SDS011;11168;56.976;24.168;2023-02-28T16:19:48;3.45;;;2.30;;
22007;SDS011;11168;56.976;24.168;2023-02-28T16:22:15;5.03;;;2.25;;
22007;SDS011;11168;56.976;24.168;2023-02-28T16:24:42;3.63;;;1.75;;
22007;SDS011;11168;56.976;24.168;2023-02-28T16:27:14;5.82;;;1.73;;
22007;SDS011;11168;56.976;24.168;2023-02-28T16:29:55;5.35;;;1.83;;
22007;SDS011;11168;56.976;24.168;2023-02-28T16:32:23;8.27;;;2.08;;
22007;SDS011;11168;56.976;24.168;2023-02-28T16:34:50;24.10;;;4.28;;
22007;SDS011;11168;56.976;24.168;2023-02-28T16:37:19;10.20;;;7.25;;
22007;SDS011;11168;56.976;24.168;2023-02-28T16:39:46;17.15;;;9.65;;
22007;SDS011;11168;56.976;24.168;2023-02-28T16:42:19;21.88;;;15.50;;
22007;SDS011;11168;56.976;24.168;2023-02-28T16:44:49;28.77;;;19.63;;
22007;SDS011;11168;56.976;24.168;2023-02-28T16:47:17;35.20;;;21.38;;
22007;SDS011;11168;56.976;24.168;2023-02-28T16:49:44;33.22;;;21.73;;
22007;SDS011;11168;56.976;24.168;2023-02-28T16:52:11;30.45;;;19.55;;
22007;SDS011;11168;56.976;24.168;2023-02-28T16:54:38;28.13;;;17.58;;
22007;SDS011;11168;56.976;24.168;2023-02-28T16:57:15;29.75;;;17.33;;
22007;SDS011;11168;56.976;24.168;2023-02-28T16:59:48;31.90;;;17.20;;
22007;SDS011;11168;56.976;24.168;2023-02-28T17:02:18;21.35;;;15.13;;
22007;SDS011;11168;56.976;24.168;2023-02-28T17:04:46;25.67;;;15.35;;
22007;SDS011;11168;56.976;24.168;2023-02-28T17:07:13;26.02;;;16.10;;
22007;SDS011;11168;56.976;24.168;2023-02-28T17:09:45;27.60;;;15.25;;
22007;SDS011;11168;56.976;24.168;2023-02-28T17:12:12;37.88;;;20.80;;
22007;SDS011;11168;56.976;24.168;2023-02-28T17:14:39;30.85;;;18.42;;
22007;SDS011;11168;56.976;24.168;2023-02-28T17:17:06;29.83;;;16.80;;
22007;SDS011;11168;56.976;24.168;2023-02-28T17:19:36;25.88;;;14.68;;
22007;SDS011;11168;56.976;24.168;2023-02-28T17:22:04;17.80;;;12.80;;
22007;SDS011;11168;56.976;24.168;2023-02-28T17:24:31;17.00;;;9.68;;
22007;SDS011;11168;56.976;24.168;2023-02-28T17:26:58;16.63;;;9.18;;
22007;SDS011;11168;56.976;24.168;2023-02-28T17:29:25;9.65;;;6.35;;
22007;SDS011;11168;56.976;24.168;2023-02-28T17:31:52;6.20;;;4.07;;
22007;SDS011;11168;56.976;24.168;2023-02-28T17:34:20;5.82;;;2.53;;
22007;SDS011;11168;56.976;24.168;2023-02-28T17:36:48;4.18;;;2.17;;
22007;SDS011;11168;56.976;24.168;2023-02-28T17:39:16;4.55;;;1.90;;
22007;SDS011;11168;56.976;24.168;2023-02-28T17:41:51;4.13;;;1.40;;
22007;SDS011;11168;56.976;24.168;2023-02-28T17:44:19;3.67;;;1.05;;
22007;SDS011;11168;56.976;24.168;2023-02-28T17:46:46;2.78;;;1.08;;
22007;SDS011;11168;56.976;24.168;2023-02-28T17:49:18;3.92;;;1.20;;
22007;SDS011;11168;56.976;24.168;2023-02-28T17:51:45;3.95;;;0.98;;
22007;SDS011;11168;56.976;24.168;2023-02-28T17:54:13;3.17;;;1.00;;
22007;SDS011;11168;56.976;24.168;2023-02-28T17:56:43;3.90;;;1.08;;
22007;SDS011;11168;56.976;24.168;2023-02-28T17:59:11;2.25;;;0.90;;
22007;SDS011;11168;56.976;24.168;2023-02-28T18:01:38;5.15;;;1.10;;
22007;SDS011;11168;56.976;24.168;2023-02-28T18:04:06;2.13;;;1.23;;
22007;SDS011;11168;56.976;24.168;2023-02-28T18:06:37;4.47;;;1.20;;
22007;SDS011;11168;56.976;24.168;2023-02-28T18:09:20;2.63;;;0.85;;
22007;SDS011;11168;56.976;24.168;2023-02-28T18:11:49;2.63;;;1.13;;
22007;SDS011;11168;56.976;24.168;2023-02-28T18:14:18;4.40;;;1.08;;
22007;SDS011;11168;56.976;24.168;2023-02-28T18:16:46;2.95;;;1.00;;
22007;SDS011;11168;56.976;24.168;2023-02-28T18:19:14;2.95;;;1.13;;